首页
METAR-TAF:

METAR-TAF

机场 :

哥伦比亚, 南卡罗来纳州, 美国

纬度: 33-58-15N, 经度: 080-59-40W, 海拔: 64米

当前天气观测

该预报发布于1小时和0分钟前的04:53 UTC
静风
温度 24°C
湿度 61%
气压 1017 hPa
能見度: 16.1公里
天空无云

METAR: KCUB 270453Z AUTO 00000KT 10SM CLR 24/16 A3002 RMK AO2 SLP161 T02390156 403720228

时间: 01:53 (05:53 UTC)

预报

该预报发布于15分钟前的05:38 UTC
预报有效从27日的 06点(UTC)到 28日的 06点(UTC)
风速节,风向
能見度: 10公里
少量云层高于25000英尺
从 27日的 1500点(UTC)
风速9节,风向西转西北,有时为16节阵风
能見度: 10公里
少量云层高于6000英尺
散云层高于25000英尺
从 28日的 0000点(UTC)
风速节,风向
能見度: 10公里
少量云层高于25000英尺

TAF: KCUB 270538Z 2706/2806 00000KT P6SM FEW250 FM271500 29009G16KT P6SM FEW060 SCT250 FM280000 00000KT P6SM FEW250

超过4000个机场的气象观测和天气预报(METAR&TAF报告)。

可查询的气象台以黄色和红色小点在地图上表示。

将鼠标移到小点上方,可查看气象台名称。

然后点击查看天气观测和预报。

如需切换地图:点击带黑十字的绿色按钮放大地图;点击带横线的绿色按钮缩小地图;或者点击绿色箭头查看邻近地区的地图。


METAR-TAF: